Histon, United Kingdom
Current Conditions -  °F | °C
As of 10:50 AM on Wednesday 22 Oct 2014 (Local Time) from EGSC Reporting Station
Clear Clear  
Wind Chill: 11°   Ceiling: Unl
Heat Index: 11°   Visibility: 6mi
Dew Point:   Wind: 15mph
Humidity: 67%   Direction: 270°W
Pressure: 30.24"   Gusts: NA
Location:  52.25°N, 0.11°E
Report Text: EGSC 220950Z 27013KT 240V300 CAVOK 11/05 Q1024
Loading
Personal Weather Stations






























Interactive Weather Map
Tropical Storm Tracking
New forecast layout! Learn more

10-Day Weather Forecast

Advertisements
Track Severe Weather on mobile